createdAt,value
2022-09-23T00:01:19.187Z,5.87
2022-09-23T00:03:46.362Z,6.10
2022-09-23T00:06:19.195Z,5.80
2022-09-23T00:08:46.431Z,5.90
2022-09-23T00:11:16.010Z,6.20
2022-09-23T00:13:45.358Z,6.13
2022-09-23T00:16:15.370Z,5.72
2022-09-23T00:18:43.237Z,6.00
2022-09-23T00:21:13.060Z,6.28
2022-09-23T00:23:43.044Z,6.32
2022-09-23T00:26:14.172Z,6.37
2022-09-23T00:28:41.629Z,5.38
2022-09-23T00:31:14.763Z,5.43
2022-09-23T00:33:41.976Z,5.10
2022-09-23T00:36:11.630Z,7.30
2022-09-23T00:38:38.986Z,5.90
2022-09-23T00:41:06.539Z,5.68
2022-09-23T00:43:53.005Z,5.82
2022-09-23T00:46:29.246Z,6.22
2022-09-23T00:49:22.745Z,5.78
2022-09-23T00:51:55.999Z,6.90
2022-09-23T00:54:25.230Z,6.65
2022-09-23T00:56:52.289Z,6.30
2022-09-23T00:59:20.825Z,5.95
2022-09-23T01:01:50.112Z,6.55
2022-09-23T01:04:17.058Z,6.13
2022-09-23T01:06:43.903Z,5.35
2022-09-23T01:09:10.850Z,6.38
2022-09-23T01:12:10.273Z,5.68
2022-09-23T01:14:43.189Z,5.50
2022-09-23T01:17:31.554Z,5.70
2022-09-23T01:20:29.711Z,6.15
2022-09-23T01:22:56.443Z,5.80
2022-09-23T01:26:00.374Z,5.90
2022-09-23T01:29:02.639Z,5.47
2022-09-23T01:31:39.720Z,5.17
2022-09-23T01:34:38.833Z,5.20
2022-09-23T01:37:16.117Z,5.53
2022-09-23T01:40:14.833Z,5.20
2022-09-23T01:43:00.654Z,5.20
2022-09-23T01:45:37.579Z,4.83
2022-09-23T01:48:15.223Z,4.63
2022-09-23T01:50:57.697Z,4.78
2022-09-23T01:53:43.320Z,4.80
2022-09-23T01:56:21.272Z,4.97
2022-09-23T01:59:04.558Z,4.73
2022-09-23T02:01:39.349Z,5.30
2022-09-23T02:04:31.265Z,5.05
2022-09-23T02:07:03.694Z,5.13
2022-09-23T02:09:37.769Z,4.95
2022-09-23T02:12:12.838Z,4.90
2022-09-23T02:14:59.806Z,4.55
2022-09-23T02:17:41.857Z,4.90
2022-09-23T02:20:13.770Z,4.20
2022-09-23T02:22:50.082Z,4.63
2022-09-23T02:25:17.463Z,4.00
2022-09-23T02:27:54.421Z,4.20
2022-09-23T02:30:27.295Z,4.50
2022-09-23T02:33:08.824Z,4.00
2022-09-23T02:35:59.345Z,3.60
2022-09-23T02:38:31.868Z,4.10
2022-09-23T02:41:10.904Z,4.05
2022-09-23T02:43:46.441Z,4.40
2022-09-23T02:46:13.444Z,5.05
2022-09-23T02:48:49.510Z,5.15
2022-09-23T02:51:16.763Z,4.53
2022-09-23T02:53:46.010Z,3.85
2022-09-23T02:56:21.153Z,4.00
2022-09-23T02:58:49.990Z,4.75
2022-09-23T03:01:45.456Z,4.15
2022-09-23T03:04:17.189Z,3.80
2022-09-23T03:06:46.772Z,5.50
2022-09-23T03:09:34.048Z,4.20
2022-09-23T03:12:39.534Z,4.32
2022-09-23T03:15:09.359Z,4.80
2022-09-23T03:17:54.623Z,3.63
2022-09-23T03:20:34.787Z,3.92
2022-09-23T03:23:06.952Z,3.42
2022-09-23T03:25:38.460Z,3.53
2022-09-23T03:28:08.372Z,3.70
2022-09-23T03:30:36.755Z,3.27
2022-09-23T03:33:09.740Z,3.17
2022-09-23T03:36:04.644Z,3.90
2022-09-23T03:38:38.082Z,3.90
2022-09-23T03:41:09.638Z,3.10
2022-09-23T03:43:38.948Z,3.40
2022-09-23T03:46:08.370Z,4.10
2022-09-23T03:48:35.342Z,4.10
2022-09-23T03:51:20.411Z,4.35
2022-09-23T03:53:48.340Z,4.22
2022-09-23T03:56:15.337Z,4.90
2022-09-23T03:58:42.794Z,4.57
2022-09-23T04:01:09.630Z,4.32
2022-09-23T04:03:36.485Z,3.60
2022-09-23T04:06:03.581Z,4.28
2022-09-23T04:08:30.530Z,4.10
2022-09-23T04:11:01.818Z,5.22
2022-09-23T04:13:29.536Z,4.65
2022-09-23T04:15:56.279Z,4.65
2022-09-23T04:18:23.585Z,3.78
2022-09-23T04:20:50.428Z,3.63
2022-09-23T04:23:17.324Z,3.97
2022-09-23T04:25:48.622Z,4.05
2022-09-23T04:28:15.929Z,4.53
2022-09-23T04:30:43.902Z,4.20
2022-09-23T04:33:11.470Z,4.90
2022-09-23T04:35:40.358Z,4.80
2022-09-23T04:38:07.759Z,5.50
2022-09-23T04:40:36.070Z,4.75
2022-09-23T04:43:03.390Z,3.92
2022-09-23T04:45:30.600Z,4.70
2022-09-23T04:47:58.713Z,4.47
2022-09-23T04:50:26.744Z,4.57
2022-09-23T04:52:54.289Z,4.50
2022-09-23T04:55:22.473Z,4.25
2022-09-23T04:57:49.263Z,6.30
2022-09-23T05:00:16.538Z,4.53
2022-09-23T05:02:48.027Z,5.28
2022-09-23T05:05:18.711Z,5.20
2022-09-23T05:07:45.419Z,5.60
2022-09-23T05:10:12.233Z,5.40
2022-09-23T05:12:39.131Z,6.05
2022-09-23T05:15:06.192Z,4.63
2022-09-23T05:17:33.032Z,4.80
2022-09-23T05:20:00.022Z,4.50
2022-09-23T05:22:26.917Z,5.27
2022-09-23T05:24:53.960Z,5.28
2022-09-23T05:27:21.166Z,4.97
2022-09-23T05:29:49.037Z,6.50
2022-09-23T05:32:16.094Z,5.35
2022-09-23T05:34:43.345Z,5.00
2022-09-23T05:37:10.441Z,6.13
2022-09-23T05:39:37.592Z,4.75
2022-09-23T05:42:04.892Z,6.43
2022-09-23T05:44:31.798Z,5.25
2022-09-23T05:46:58.767Z,5.13
2022-09-23T05:49:42.482Z,5.88
2022-09-23T05:52:12.709Z,6.57
2022-09-23T05:54:40.474Z,5.72
2022-09-23T05:57:07.403Z,5.53
2022-09-23T05:59:34.415Z,6.50
2022-09-23T06:02:02.120Z,5.72
2022-09-23T06:04:29.210Z,7.22
2022-09-23T06:07:00.271Z,5.65
2022-09-23T06:09:34.119Z,6.85
2022-09-23T06:12:04.436Z,6.40
2022-09-23T06:14:31.343Z,7.78
2022-09-23T06:16:58.442Z,7.07
2022-09-23T06:19:25.331Z,6.78
2022-09-23T06:21:52.495Z,6.28
2022-09-23T06:24:22.924Z,7.47
2022-09-23T06:26:51.978Z,6.82
2022-09-23T06:29:18.992Z,7.93
2022-09-23T06:31:46.101Z,6.88
2022-09-23T06:34:14.757Z,7.40
2022-09-23T06:36:45.519Z,6.50
2022-09-23T06:39:16.242Z,7.10
2022-09-23T06:41:44.900Z,7.45
2022-09-23T06:44:12.008Z,8.30
2022-09-23T06:46:39.113Z,8.13
2022-09-23T06:49:06.315Z,9.37
2022-09-23T06:51:33.670Z,8.18
2022-09-23T06:54:00.721Z,8.07
2022-09-23T06:56:27.947Z,8.45
2022-09-23T06:58:54.925Z,9.30
2022-09-23T07:01:23.036Z,9.47
2022-09-23T07:03:50.494Z,10.32
2022-09-23T07:06:18.123Z,9.45
2022-09-23T07:08:47.547Z,9.45
2022-09-23T07:11:20.955Z,10.10
2022-09-23T07:13:47.784Z,10.20
2022-09-23T07:16:14.921Z,10.00
2022-09-23T07:18:42.959Z,10.13
2022-09-23T07:21:15.693Z,10.05
2022-09-23T07:23:52.780Z,9.55
2022-09-23T07:26:20.348Z,9.53
2022-09-23T07:28:47.341Z,9.60
2022-09-23T07:31:24.104Z,9.95
2022-09-23T07:33:57.819Z,9.57
2022-09-23T07:36:28.040Z,9.60
2022-09-23T07:39:00.691Z,9.40
2022-09-23T07:41:29.105Z,9.57
2022-09-23T07:43:59.029Z,9.52
2022-09-23T07:46:28.212Z,10.07
2022-09-23T07:48:55.276Z,9.77
2022-09-23T07:51:26.315Z,9.63
2022-09-23T07:53:54.919Z,9.65
2022-09-23T07:56:25.810Z,9.48
2022-09-23T07:59:03.843Z,9.30
2022-09-23T08:01:36.170Z,9.45
2022-09-23T08:04:09.361Z,9.20
2022-09-23T08:06:39.876Z,9.38
2022-09-23T08:09:06.913Z,9.18
2022-09-23T08:11:34.152Z,9.43
2022-09-23T08:14:01.083Z,8.77
2022-09-23T08:16:28.402Z,9.40
2022-09-23T08:18:55.301Z,8.50
2022-09-23T08:21:23.253Z,9.75
2022-09-23T08:23:51.873Z,8.98
2022-09-23T08:26:22.137Z,8.48
2022-09-23T08:28:50.389Z,8.40
2022-09-23T08:31:17.567Z,8.40
2022-09-23T08:33:44.525Z,8.57
2022-09-23T08:36:11.497Z,8.30
2022-09-23T08:38:38.429Z,8.38
2022-09-23T08:41:25.566Z,8.33
2022-09-23T08:44:02.228Z,7.97
2022-09-23T08:46:43.602Z,8.40
2022-09-23T08:49:17.621Z,7.50
2022-09-23T08:51:47.533Z,7.88
2022-09-23T08:54:18.060Z,7.93
2022-09-23T08:56:49.305Z,7.45
2022-09-23T08:59:43.824Z,8.68
2022-09-23T09:02:22.879Z,7.35
2022-09-23T09:04:54.709Z,10.00
2022-09-23T09:07:38.516Z,7.40
2022-09-23T09:10:27.046Z,7.57
2022-09-23T09:13:07.613Z,7.45
2022-09-23T09:15:45.241Z,7.35
2022-09-23T09:18:21.512Z,7.97
2022-09-23T09:20:48.302Z,7.43
2022-09-23T09:23:34.860Z,7.72
2022-09-23T09:26:03.258Z,7.63
2022-09-23T09:28:39.322Z,7.25
2022-09-23T09:31:36.862Z,6.70
2022-09-23T09:34:24.768Z,7.03
2022-09-23T09:37:14.022Z,7.35
2022-09-23T09:39:41.122Z,6.82
2022-09-23T09:42:20.404Z,6.72
2022-09-23T09:44:58.865Z,7.30
2022-09-23T09:47:56.748Z,7.00
2022-09-23T09:50:47.339Z,6.63
2022-09-23T09:53:35.871Z,6.28
2022-09-23T09:56:05.293Z,5.93
2022-09-23T09:58:48.306Z,5.90
2022-09-23T10:01:35.318Z,6.03
2022-09-23T10:04:06.450Z,5.90
2022-09-23T10:06:36.048Z,6.10
2022-09-23T10:09:26.226Z,5.82
2022-09-23T10:12:13.243Z,5.63
2022-09-23T10:14:40.191Z,5.03
2022-09-23T10:17:15.622Z,5.18
2022-09-23T10:19:48.408Z,4.85
2022-09-23T10:22:33.621Z,5.20
2022-09-23T10:25:07.678Z,4.75
2022-09-23T10:27:36.726Z,4.60
2022-09-23T10:30:23.198Z,5.22
2022-09-23T10:32:55.151Z,4.88
2022-09-23T10:35:24.728Z,4.35
2022-09-23T10:37:54.024Z,4.95
2022-09-23T10:40:50.814Z,4.37
2022-09-23T10:44:11.217Z,4.15
2022-09-23T10:46:51.450Z,4.32
2022-09-23T10:49:58.828Z,4.30
2022-09-23T10:52:54.855Z,4.40
2022-09-23T10:55:35.539Z,4.80
2022-09-23T10:58:37.293Z,4.63
2022-09-23T11:01:37.713Z,4.88
2022-09-23T11:04:38.469Z,4.53
2022-09-23T11:07:08.438Z,3.90
2022-09-23T11:09:48.743Z,3.93
2022-09-23T11:12:24.659Z,4.68
2022-09-23T11:15:00.619Z,4.43
2022-09-23T11:17:51.577Z,5.18
2022-09-23T11:20:22.026Z,4.50
2022-09-23T11:23:34.816Z,4.90
2022-09-23T11:26:13.906Z,4.88
2022-09-23T11:28:55.344Z,4.45
2022-09-23T11:31:34.269Z,4.10
2022-09-23T11:34:39.521Z,4.85
2022-09-23T11:37:18.757Z,4.63
2022-09-23T11:40:03.369Z,4.50
2022-09-23T11:42:36.760Z,4.68
2022-09-23T11:45:15.117Z,4.35
2022-09-23T11:47:56.764Z,4.40
2022-09-23T11:50:42.337Z,4.40
2022-09-23T11:53:23.110Z,4.60
2022-09-23T11:56:24.292Z,3.90
2022-09-23T11:59:11.215Z,3.58
2022-09-23T12:01:50.029Z,3.38
2022-09-23T12:04:24.273Z,2.93
2022-09-23T12:07:19.011Z,3.60
2022-09-23T12:10:07.177Z,3.20
2022-09-23T12:12:48.914Z,3.53
2022-09-23T12:15:37.424Z,3.72
2022-09-23T12:18:43.113Z,3.30
2022-09-23T12:21:38.845Z,3.22
2022-09-23T12:24:22.341Z,2.60
2022-09-23T12:26:54.540Z,2.83
2022-09-23T12:29:24.929Z,2.70
2022-09-23T12:31:52.017Z,2.63
2022-09-23T12:34:25.113Z,2.38
2022-09-23T12:36:52.515Z,2.65
2022-09-23T12:39:31.859Z,2.55
2022-09-23T12:42:20.912Z,2.25
2022-09-23T12:44:49.110Z,1.90
2022-09-23T12:47:21.415Z,2.78
2022-09-23T12:49:49.702Z,1.95
2022-09-23T12:52:16.709Z,2.40
2022-09-23T12:54:48.451Z,2.47
2022-09-23T12:57:33.331Z,1.73
2022-09-23T13:00:23.206Z,1.92
2022-09-23T13:03:08.281Z,1.88
2022-09-23T13:06:20.531Z,1.85
2022-09-23T13:08:49.636Z,2.10
2022-09-23T13:11:27.747Z,2.13
2022-09-23T13:13:56.733Z,2.10
2022-09-23T13:16:29.474Z,1.95
2022-09-23T13:19:01.326Z,1.95
2022-09-23T13:21:43.538Z,2.50
2022-09-23T13:24:12.997Z,1.97
2022-09-23T13:27:05.679Z,2.40
2022-09-23T13:29:49.683Z,2.25
2022-09-23T13:32:21.099Z,2.38
2022-09-23T13:35:02.415Z,2.08
2022-09-23T13:37:38.171Z,2.20
2022-09-23T13:40:16.589Z,2.28
2022-09-23T13:42:46.107Z,2.30
2022-09-23T13:45:19.203Z,2.30
2022-09-23T13:47:48.288Z,2.20
2022-09-23T13:50:19.885Z,2.20
2022-09-23T13:52:52.839Z,2.42
2022-09-23T13:55:37.693Z,2.28
2022-09-23T13:58:19.444Z,2.20
2022-09-23T14:00:49.534Z,2.78
2022-09-23T14:03:36.454Z,2.63
2022-09-23T14:06:14.742Z,2.17
2022-09-23T14:08:45.519Z,2.45
2022-09-23T14:11:22.209Z,2.50
2022-09-23T14:13:54.366Z,2.53
2022-09-23T14:16:25.352Z,2.87
2022-09-23T14:18:57.406Z,2.97
2022-09-23T14:21:38.600Z,2.78
2022-09-23T14:24:15.488Z,2.30
2022-09-23T14:26:44.969Z,2.25
2022-09-23T14:29:33.479Z,2.50
2022-09-23T14:32:21.418Z,2.33
2022-09-23T14:35:00.453Z,2.50
2022-09-23T14:37:45.723Z,2.22
2022-09-23T14:40:34.773Z,2.10
2022-09-23T14:43:22.938Z,2.23
2022-09-23T14:45:56.040Z,2.42
2022-09-23T14:48:28.917Z,3.00
2022-09-23T14:51:04.846Z,2.88
2022-09-23T14:53:43.064Z,3.42
2022-09-23T14:56:21.091Z,2.57
2022-09-23T14:58:56.681Z,3.22
2022-09-23T15:01:32.929Z,3.70
2022-09-23T15:04:10.077Z,3.55
2022-09-23T15:06:39.597Z,4.05
2022-09-23T15:09:07.658Z,4.83
2022-09-23T15:11:36.249Z,4.18
2022-09-23T15:14:33.251Z,3.97
2022-09-23T15:16:53.741Z,4.15
2022-09-23T15:19:21.829Z,4.35
2022-09-23T15:21:54.509Z,4.07
2022-09-23T15:25:14.786Z,3.78
2022-09-23T15:27:41.838Z,3.95
2022-09-23T15:30:18.032Z,4.40
2022-09-23T15:32:46.141Z,4.03
2022-09-23T15:35:19.020Z,4.30
2022-09-23T15:37:48.830Z,3.33
2022-09-23T15:40:26.144Z,4.32
2022-09-23T15:43:07.249Z,5.10
2022-09-23T15:45:44.031Z,3.88
2022-09-23T15:48:17.492Z,3.40
2022-09-23T15:50:47.311Z,3.97
2022-09-23T15:53:17.722Z,3.88
2022-09-23T15:55:45.429Z,4.30
2022-09-23T15:58:12.424Z,4.28
2022-09-23T16:00:39.658Z,3.80
2022-09-23T16:03:06.837Z,3.92
2022-09-23T16:05:38.068Z,4.80
2022-09-23T16:08:10.071Z,4.32
2022-09-23T16:10:37.849Z,4.32
2022-09-23T16:13:07.922Z,3.97
2022-09-23T16:15:34.883Z,4.18
2022-09-23T16:18:01.875Z,4.63
2022-09-23T16:20:30.522Z,3.95
2022-09-23T16:23:01.467Z,4.03
2022-09-23T16:25:31.776Z,4.03
2022-09-23T16:27:59.133Z,4.55
2022-09-23T16:30:27.870Z,4.07
2022-09-23T16:32:55.387Z,4.50
2022-09-23T16:35:24.894Z,5.35
2022-09-23T16:37:52.507Z,4.33
2022-09-23T16:40:21.763Z,4.97
2022-09-23T16:42:49.718Z,5.45
2022-09-23T16:45:18.347Z,4.78
2022-09-23T16:47:47.711Z,4.72
2022-09-23T16:50:17.485Z,5.60
2022-09-23T16:52:45.181Z,5.80
2022-09-23T16:55:13.988Z,5.85
2022-09-23T16:57:41.386Z,5.90
2022-09-23T17:00:34.607Z,6.65
2022-09-23T17:03:20.783Z,6.03
2022-09-23T17:05:49.385Z,5.97
2022-09-23T17:08:18.098Z,6.78
2022-09-23T17:10:55.194Z,7.65
2022-09-23T17:13:21.977Z,6.22
2022-09-23T17:15:48.865Z,6.87
2022-09-23T17:18:19.452Z,6.57
2022-09-23T17:21:07.874Z,7.18
2022-09-23T17:23:36.149Z,7.05
2022-09-23T17:26:03.195Z,7.10
2022-09-23T17:28:30.091Z,5.83
2022-09-23T17:31:02.049Z,7.63
2022-09-23T17:33:31.103Z,6.88
2022-09-23T17:36:00.290Z,7.22
2022-09-23T17:38:29.281Z,7.45
2022-09-23T17:40:59.515Z,7.60
2022-09-23T17:43:26.820Z,7.00
2022-09-23T17:45:56.349Z,7.97
2022-09-23T17:48:25.491Z,7.95
2022-09-23T17:50:56.048Z,6.95
2022-09-23T17:53:23.922Z,7.10
2022-09-23T17:56:01.971Z,8.10
2022-09-23T17:58:30.301Z,8.30
2022-09-23T18:00:58.339Z,9.45
2022-09-23T18:03:27.724Z,8.63
2022-09-23T18:05:55.249Z,7.63
2022-09-23T18:08:22.128Z,8.52
2022-09-23T18:10:49.097Z,7.80
2022-09-23T18:13:15.926Z,7.78
2022-09-23T18:15:42.862Z,9.50
2022-09-23T18:18:09.862Z,9.53
2022-09-23T18:20:36.614Z,8.82
2022-09-23T18:23:03.500Z,9.02
2022-09-23T18:25:39.595Z,8.82
2022-09-23T18:28:07.184Z,9.52
2022-09-23T18:30:34.064Z,9.83
2022-09-23T18:33:01.788Z,9.15
2022-09-23T18:35:28.876Z,9.13
2022-09-23T18:37:56.158Z,9.57
2022-09-23T18:40:23.141Z,9.32
2022-09-23T18:42:50.444Z,8.63
2022-09-23T18:45:17.324Z,8.73
2022-09-23T18:48:02.719Z,8.48
2022-09-23T18:50:43.430Z,8.98
2022-09-23T18:53:10.637Z,8.98
2022-09-23T18:55:38.229Z,9.57
2022-09-23T18:58:07.493Z,9.35
2022-09-23T19:00:35.104Z,9.50
2022-09-23T19:03:02.406Z,9.80
2022-09-23T19:05:29.512Z,10.57
2022-09-23T19:07:56.393Z,9.83
2022-09-23T19:10:23.240Z,10.60
2022-09-23T19:12:50.240Z,11.88
2022-09-23T19:15:17.396Z,10.40
2022-09-23T19:17:44.289Z,11.85
2022-09-23T19:20:11.285Z,10.33
2022-09-23T19:22:38.346Z,10.75
2022-09-23T19:25:05.736Z,10.65
2022-09-23T19:27:33.413Z,10.07
2022-09-23T19:30:00.270Z,9.27
2022-09-23T19:32:27.249Z,11.63
2022-09-23T19:34:54.138Z,11.13
2022-09-23T19:37:21.187Z,11.48
2022-09-23T19:39:48.335Z,11.15
2022-09-23T19:42:15.176Z,12.60
2022-09-23T19:44:42.039Z,12.20
2022-09-23T19:47:15.581Z,10.23
2022-09-23T19:49:42.630Z,12.77
2022-09-23T19:52:09.569Z,11.32
2022-09-23T19:54:37.756Z,11.15
2022-09-23T19:57:04.753Z,12.67
2022-09-23T19:59:31.755Z,11.40
2022-09-23T20:01:58.635Z,11.32
2022-09-23T20:04:26.306Z,10.73
2022-09-23T20:06:53.134Z,11.95
2022-09-23T20:09:20.074Z,10.73
2022-09-23T20:11:46.979Z,12.55
2022-09-23T20:14:14.040Z,13.70
2022-09-23T20:16:41.003Z,11.98
2022-09-23T20:19:10.183Z,12.55
2022-09-23T20:21:37.177Z,12.33
2022-09-23T20:24:05.882Z,13.40
2022-09-23T20:26:51.605Z,14.00
2022-09-23T20:29:18.809Z,14.02
2022-09-23T20:31:46.037Z,13.63
2022-09-23T20:34:13.100Z,14.03
2022-09-23T20:36:41.487Z,12.88
2022-09-23T20:39:10.026Z,15.23
2022-09-23T20:41:38.652Z,12.82
2022-09-23T20:44:12.709Z,13.80
2022-09-23T20:46:46.778Z,13.57
2022-09-23T20:49:15.826Z,13.43
2022-09-23T20:51:42.829Z,13.27
2022-09-23T20:54:09.822Z,14.40
2022-09-23T20:56:36.726Z,13.05
2022-09-23T20:59:04.940Z,12.17
2022-09-23T21:01:36.732Z,11.88
2022-09-23T21:04:05.957Z,10.82
2022-09-23T21:06:37.959Z,11.50
2022-09-23T21:09:06.196Z,13.70
2022-09-23T21:11:34.074Z,13.43
2022-09-23T21:14:01.691Z,13.05
2022-09-23T21:16:28.750Z,11.93
2022-09-23T21:18:55.654Z,10.93
2022-09-23T21:21:22.714Z,11.57
2022-09-23T21:23:50.588Z,11.90
2022-09-23T21:26:20.764Z,12.23
2022-09-23T21:28:59.827Z,11.52
2022-09-23T21:31:32.382Z,13.43
2022-09-23T21:34:01.806Z,12.73
2022-09-23T21:36:31.059Z,12.30
2022-09-23T21:38:58.287Z,11.00
2022-09-23T21:41:25.256Z,12.73
2022-09-23T21:43:52.162Z,12.25
2022-09-23T21:46:20.855Z,13.82
2022-09-23T21:48:53.038Z,11.70
2022-09-23T21:51:28.876Z,11.23
2022-09-23T21:53:57.756Z,13.18
2022-09-23T21:56:30.236Z,12.48
2022-09-23T21:58:59.705Z,12.25
2022-09-23T22:01:38.462Z,11.27
2022-09-23T22:04:17.328Z,12.98
2022-09-23T22:06:45.721Z,13.40
2022-09-23T22:09:15.738Z,13.65
2022-09-23T22:12:01.473Z,14.88
2022-09-23T22:14:29.749Z,13.13
2022-09-23T22:17:00.077Z,13.40
2022-09-23T22:19:35.767Z,13.60
2022-09-23T22:22:07.942Z,14.65
2022-09-23T22:24:34.894Z,12.95
2022-09-23T22:27:01.836Z,13.67
2022-09-23T22:29:47.269Z,13.32
2022-09-23T22:32:32.856Z,12.82
2022-09-23T22:34:59.647Z,13.57
2022-09-23T22:37:34.395Z,13.75
2022-09-23T22:40:06.640Z,13.90
2022-09-23T22:42:33.747Z,15.27
2022-09-23T22:45:00.741Z,15.38
2022-09-23T22:47:27.733Z,15.55
2022-09-23T22:49:55.645Z,14.93
2022-09-23T22:52:24.563Z,15.07
2022-09-23T22:54:52.201Z,16.15
2022-09-23T22:57:22.223Z,15.93
2022-09-23T22:59:49.123Z,15.75
2022-09-23T23:02:18.213Z,15.45
2022-09-23T23:04:47.314Z,15.13
2022-09-23T23:07:16.262Z,16.33
2022-09-23T23:09:43.203Z,15.55
2022-09-23T23:12:10.055Z,15.77
2022-09-23T23:14:38.132Z,17.63
2022-09-23T23:17:07.673Z,15.93
2022-09-23T23:19:37.141Z,15.73
2022-09-23T23:22:07.004Z,17.05
2022-09-23T23:24:33.938Z,17.67
2022-09-23T23:27:00.885Z,15.45
2022-09-23T23:29:28.038Z,18.03
2022-09-23T23:31:55.082Z,18.05
2022-09-23T23:34:23.309Z,17.92
2022-09-23T23:36:56.389Z,16.92
2022-09-23T23:39:24.978Z,16.25
2022-09-23T23:41:57.106Z,16.50
2022-09-23T23:44:25.747Z,17.63
2022-09-23T23:46:53.942Z,17.02
2022-09-23T23:49:21.746Z,17.30
2022-09-23T23:51:49.239Z,16.65
2022-09-23T23:54:16.389Z,17.37
2022-09-23T23:56:43.391Z,15.65
2022-09-23T23:59:10.385Z,16.08
